sensor_id;sensor_type;location;lat;lon;timestamp;pressure;altitude;pressure_sealevel;temperature;humidity
9110;BME280;4590;51.462;6.692;2022-11-02T00:01:02;101326.31;;;14.95;56.25
9110;BME280;4590;51.462;6.692;2022-11-02T00:03:32;101314.06;;;14.96;56.13
9110;BME280;4590;51.462;6.692;2022-11-02T00:05:57;101317.19;;;15.03;56.21
9110;BME280;4590;51.462;6.692;2022-11-02T00:08:23;101323.38;;;15.00;56.33
9110;BME280;4590;51.462;6.692;2022-11-02T00:10:48;101305.09;;;14.99;56.08
9110;BME280;4590;51.462;6.692;2022-11-02T00:13:13;101308.06;;;15.11;55.92
9110;BME280;4590;51.462;6.692;2022-11-02T00:15:38;101316.72;;;15.09;55.89
9110;BME280;4590;51.462;6.692;2022-11-02T00:18:07;101310.50;;;15.04;56.13
9110;BME280;4590;51.462;6.692;2022-11-02T10:34:26;101882.47;;;18.09;44.23
9110;BME280;4590;51.462;6.692;2022-11-02T10:40:00;101884.88;;;18.28;42.82
9110;BME280;4590;51.462;6.692;2022-11-02T10:42:26;101883.41;;;18.39;42.66
9110;BME280;4590;51.462;6.692;2022-11-02T10:50:47;101903.88;;;18.51;41.22
9110;BME280;4590;51.462;6.692;2022-11-02T10:53:17;101893.69;;;18.47;40.91
9110;BME280;4590;51.462;6.692;2022-11-02T10:55:56;101887.47;;;18.58;42.79
9110;BME280;4590;51.462;6.692;2022-11-02T10:58:27;101897.75;;;18.58;42.26
9110;BME280;4590;51.462;6.692;2022-11-02T11:01:06;101889.59;;;18.53;42.07
9110;BME280;4590;51.462;6.692;2022-11-02T11:03:32;101894.34;;;18.70;43.35
9110;BME280;4590;51.462;6.692;2022-11-02T11:05:59;101909.69;;;18.84;43.62
9110;BME280;4590;51.462;6.692;2022-11-02T11:08:38;101900.66;;;18.87;41.39
9110;BME280;4590;51.462;6.692;2022-11-02T11:13:54;101904.06;;;18.93;40.52
9110;BME280;4590;51.462;6.692;2022-11-02T11:16:34;101901.28;;;18.93;41.32
9110;BME280;4590;51.462;6.692;2022-11-02T11:19:00;101901.28;;;18.93;41.90
9110;BME280;4590;51.462;6.692;2022-11-02T11:21:37;101901.31;;;18.84;40.86
9110;BME280;4590;51.462;6.692;2022-11-02T11:24:10;101893.38;;;18.57;39.97
9110;BME280;4590;51.462;6.692;2022-11-02T11:26:37;101903.19;;;18.72;41.47
9110;BME280;4590;51.462;6.692;2022-11-02T11:29:20;101897.97;;;18.44;40.19
9110;BME280;4590;51.462;6.692;2022-11-02T11:31:46;101911.06;;;18.52;41.60
9110;BME280;4590;51.462;6.692;2022-11-02T11:34:22;101913.88;;;18.44;41.32
9110;BME280;4590;51.462;6.692;2022-11-02T11:36:49;101898.44;;;18.46;41.80
9110;BME280;4590;51.462;6.692;2022-11-02T11:39:27;101903.91;;;18.34;40.89
9110;BME280;4590;51.462;6.692;2022-11-02T11:41:53;101906.19;;;18.32;41.96
9110;BME280;4590;51.462;6.692;2022-11-02T11:44:20;101902.28;;;18.16;41.99
9110;BME280;4590;51.462;6.692;2022-11-02T11:46:51;101910.50;;;18.04;40.77
9110;BME280;4590;51.462;6.692;2022-11-02T11:49:30;101912.44;;;17.95;40.90
9110;BME280;4590;51.462;6.692;2022-11-02T11:51:57;101909.53;;;17.91;41.79
9110;BME280;4590;51.462;6.692;2022-11-02T11:54:41;101910.66;;;17.81;41.50
9110;BME280;4590;51.462;6.692;2022-11-02T11:57:26;101909.31;;;17.62;40.64
9110;BME280;4590;51.462;6.692;2022-11-02T11:59:53;101908.50;;;17.70;41.94
9110;BME280;4590;51.462;6.692;2022-11-02T12:02:28;101907.38;;;17.71;41.80
9110;BME280;4590;51.462;6.692;2022-11-02T12:05:10;101896.03;;;17.59;41.38
9110;BME280;4590;51.462;6.692;2022-11-02T12:11:03;101899.13;;;17.48;42.10
9110;BME280;4590;51.462;6.692;2022-11-02T12:16:22;101889.47;;;17.46;42.55
9110;BME280;4590;51.462;6.692;2022-11-02T12:18:59;101879.00;;;17.43;42.91
9110;BME280;4590;51.462;6.692;2022-11-02T12:27:07;101886.66;;;17.29;42.63
9110;BME280;4590;51.462;6.692;2022-11-02T12:32:42;101887.94;;;17.23;43.25
9110;BME280;4590;51.462;6.692;2022-11-02T12:35:42;101886.81;;;17.24;42.92
9110;BME280;4590;51.462;6.692;2022-11-02T12:38:32;101884.53;;;17.26;43.51
9110;BME280;4590;51.462;6.692;2022-11-02T12:41:05;101892.53;;;17.27;43.67
9110;BME280;4590;51.462;6.692;2022-11-02T12:43:43;101877.78;;;17.18;43.49
9110;BME280;4590;51.462;6.692;2022-11-02T12:46:25;101880.41;;;17.14;43.77
9110;BME280;4590;51.462;6.692;2022-11-02T12:51:39;101886.44;;;17.16;43.53
9110;BME280;4590;51.462;6.692;2022-11-02T12:54:12;101881.88;;;17.21;44.25
9110;BME280;4590;51.462;6.692;2022-11-02T12:56:48;101888.41;;;17.16;44.01
9110;BME280;4590;51.462;6.692;2022-11-02T12:59:19;101889.41;;;17.20;44.17
9110;BME280;4590;51.462;6.692;2022-11-02T13:01:48;101898.56;;;17.21;44.38
9110;BME280;4590;51.462;6.692;2022-11-02T13:04:24;101886.94;;;17.10;44.04
9110;BME280;4590;51.462;6.692;2022-11-02T13:06:56;101885.16;;;17.14;44.18
9110;BME280;4590;51.462;6.692;2022-11-02T13:09:57;101881.19;;;17.06;44.55
9110;BME280;4590;51.462;6.692;2022-11-02T13:12:25;101900.53;;;17.11;44.38
9110;BME280;4590;51.462;6.692;2022-11-02T13:14:54;101865.81;;;17.09;44.59
9110;BME280;4590;51.462;6.692;2022-11-02T13:20:13;101870.06;;;17.06;44.93
9110;BME280;4590;51.462;6.692;2022-11-02T13:22:43;101866.66;;;17.09;45.20
9110;BME280;4590;51.462;6.692;2022-11-02T13:25:19;101868.75;;;17.04;45.37
9110;BME280;4590;51.462;6.692;2022-11-02T13:27:54;101859.25;;;17.05;45.30
9110;BME280;4590;51.462;6.692;2022-11-02T13:30:21;101875.00;;;17.09;45.83
9110;BME280;4590;51.462;6.692;2022-11-02T13:33:20;101862.38;;;17.03;45.63
9110;BME280;4590;51.462;6.692;2022-11-02T13:35:47;101862.38;;;17.03;45.74
9110;BME280;4590;51.462;6.692;2022-11-02T13:38:29;101852.69;;;16.92;45.99
9110;BME280;4590;51.462;6.692;2022-11-02T13:44:00;101844.50;;;16.87;46.38
9110;BME280;4590;51.462;6.692;2022-11-02T13:46:38;101854.16;;;16.90;45.96
9110;BME280;4590;51.462;6.692;2022-11-02T13:49:34;101859.72;;;16.90;46.00
9110;BME280;4590;51.462;6.692;2022-11-02T13:52:04;101854.50;;;16.97;46.35
9110;BME280;4590;51.462;6.692;2022-11-02T13:54:39;101854.00;;;16.95;46.22
9110;BME280;4590;51.462;6.692;2022-11-02T13:57:22;101855.47;;;16.92;46.54
9110;BME280;4590;51.462;6.692;2022-11-02T13:59:50;101847.50;;;16.99;46.51
9110;BME280;4590;51.462;6.692;2022-11-02T14:02:18;101841.94;;;16.99;46.55
9110;BME280;4590;51.462;6.692;2022-11-02T14:04:45;101850.28;;;17.08;46.84
9110;BME280;4590;51.462;6.692;2022-11-02T14:07:28;101841.13;;;17.07;46.41
9110;BME280;4590;51.462;6.692;2022-11-02T14:10:03;101830.69;;;17.13;46.62
9110;BME280;4590;51.462;6.692;2022-11-02T14:12:47;101838.28;;;16.90;46.85
9110;BME280;4590;51.462;6.692;2022-11-02T14:20:39;101834.88;;;16.93;46.75
9110;BME280;4590;51.462;6.692;2022-11-02T14:25:52;101832.09;;;16.93;46.93
9110;BME280;4590;51.462;6.692;2022-11-02T14:39:08;101824.72;;;16.89;46.80
9110;BME280;4590;51.462;6.692;2022-11-02T14:47:10;101817.19;;;16.89;46.62
9110;BME280;4590;51.462;6.692;2022-11-02T14:50:17;101809.16;;;16.79;46.94
9110;BME280;4590;51.462;6.692;2022-11-02T14:53:01;101804.59;;;16.83;46.74
9110;BME280;4590;51.462;6.692;2022-11-02T14:55:30;101813.28;;;16.90;46.71
9110;BME280;4590;51.462;6.692;2022-11-02T14:58:03;101804.44;;;16.88;46.50
9110;BME280;4590;51.462;6.692;2022-11-02T15:00:37;101801.97;;;16.87;46.65
9110;BME280;4590;51.462;6.692;2022-11-02T15:05:58;101798.53;;;16.81;46.62
9110;BME280;4590;51.462;6.692;2022-11-02T15:08:26;101803.78;;;16.82;46.93
9110;BME280;4590;51.462;6.692;2022-11-02T15:10:53;101804.94;;;16.81;46.59
9110;BME280;4590;51.462;6.692;2022-11-02T15:15:45;101793.13;;;16.76;46.64
9110;BME280;4590;51.462;6.692;2022-11-02T15:23:56;101785.34;;;16.56;46.64
9110;BME280;4590;51.462;6.692;2022-11-02T15:29:15;101786.78;;;16.53;46.64
9110;BME280;4590;51.462;6.692;2022-11-02T15:31:53;101785.00;;;16.48;46.53
9110;BME280;4590;51.462;6.692;2022-11-02T15:34:23;101787.78;;;16.48;46.59
9110;BME280;4590;51.462;6.692;2022-11-02T15:36:53;101782.34;;;16.43;46.67
9110;BME280;4590;51.462;6.692;2022-11-02T15:39:20;101785.13;;;16.43;46.64
9110;BME280;4590;51.462;6.692;2022-11-02T15:42:01;101783.97;;;16.36;46.64
9110;BME280;4590;51.462;6.692;2022-11-02T15:47:21;101787.88;;;16.35;46.55
9110;BME280;4590;51.462;6.692;2022-11-02T15:50:09;101783.78;;;16.32;46.68
9110;BME280;4590;51.462;6.692;2022-11-02T15:55:24;101789.78;;;16.26;47.04
9110;BME280;4590;51.462;6.692;2022-11-02T16:00:38;101790.09;;;16.24;47.39
9110;BME280;4590;51.462;6.692;2022-11-02T16:03:06;101779.66;;;16.21;47.28
9110;BME280;4590;51.462;6.692;2022-11-02T16:08:02;101784.50;;;16.16;47.50
9110;BME280;4590;51.462;6.692;2022-11-02T16:10:32;101784.63;;;16.10;47.49
9110;BME280;4590;51.462;6.692;2022-11-02T16:13:21;101771.66;;;15.97;47.60
9110;BME280;4590;51.462;6.692;2022-11-02T16:15:48;101780.31;;;15.96;47.76
9110;BME280;4590;51.462;6.692;2022-11-02T16:18:50;101781.59;;;15.90;47.95
9110;BME280;4590;51.462;6.692;2022-11-02T16:21:17;101770.34;;;15.95;47.83
9110;BME280;4590;51.462;6.692;2022-11-02T16:23:53;101767.22;;;15.88;47.84
9110;BME280;4590;51.462;6.692;2022-11-02T16:26:21;101766.91;;;15.89;47.94
9110;BME280;4590;51.462;6.692;2022-11-02T16:28:55;101759.84;;;15.83;48.15
9110;BME280;4590;51.462;6.692;2022-11-02T16:31:24;101760.97;;;15.82;48.20
9110;BME280;4590;51.462;6.692;2022-11-02T16:36:39;101762.72;;;15.78;48.29
9110;BME280;4590;51.462;6.692;2022-11-02T16:41:51;101765.66;;;15.73;48.28
9110;BME280;4590;51.462;6.692;2022-11-02T16:44:24;101763.00;;;15.68;48.52
9110;BME280;4590;51.462;6.692;2022-11-02T16:46:59;101764.56;;;15.60;48.44
9110;BME280;4590;51.462;6.692;2022-11-02T16:49:28;101765.69;;;15.59;48.68
9110;BME280;4590;51.462;6.692;2022-11-02T16:51:55;101756.06;;;15.57;48.83
9110;BME280;4590;51.462;6.692;2022-11-02T16:57:02;101761.19;;;15.50;48.58
9110;BME280;4590;51.462;6.692;2022-11-02T16:59:29;101760.38;;;15.49;48.72
9110;BME280;4590;51.462;6.692;2022-11-02T17:01:59;101754.63;;;15.45;48.60
9110;BME280;4590;51.462;6.692;2022-11-02T17:04:28;101763.25;;;15.44;48.59
9110;BME280;4590;51.462;6.692;2022-11-02T17:06:58;101757.88;;;15.39;48.69
9110;BME280;4590;51.462;6.692;2022-11-02T17:09:30;101753.34;;;15.29;48.51
9110;BME280;4590;51.462;6.692;2022-11-02T17:12:04;101751.59;;;15.33;48.46
9110;BME280;4590;51.462;6.692;2022-11-02T17:14:31;101748.00;;;15.33;48.47
9110;BME280;4590;51.462;6.692;2022-11-02T17:19:42;101761.41;;;15.17;48.26
9110;BME280;4590;51.462;6.692;2022-11-02T17:22:24;101751.75;;;15.15;48.47
9110;BME280;4590;51.462;6.692;2022-11-02T17:25:43;101752.59;;;15.15;48.25
9110;BME280;4590;51.462;6.692;2022-11-02T17:27:50;101762.03;;;15.14;48.63
9110;BME280;4590;51.462;6.692;2022-11-02T17:32:58;101762.16;;;15.09;48.75
9110;BME280;4590;51.462;6.692;2022-11-02T17:35:24;101759.41;;;15.09;49.00
9110;BME280;4590;51.462;6.692;2022-11-02T17:37:50;101767.50;;;15.05;49.13
9110;BME280;4590;51.462;6.692;2022-11-02T17:40:18;101760.31;;;15.04;49.15
9110;BME280;4590;51.462;6.692;2022-11-02T17:42:43;101767.94;;;14.99;49.50
9110;BME280;4590;51.462;6.692;2022-11-02T17:45:28;101762.69;;;14.97;49.61
9110;BME280;4590;51.462;6.692;2022-11-02T17:47:55;101759.75;;;14.94;49.58
9110;BME280;4590;51.462;6.692;2022-11-02T17:50:22;101761.28;;;14.86;49.53
9110;BME280;4590;51.462;6.692;2022-11-02T17:52:48;101751.31;;;14.85;50.00
9110;BME280;4590;51.462;6.692;2022-11-02T17:55:24;101756.81;;;14.63;50.89
9110;BME280;4590;51.462;6.692;2022-11-02T17:57:52;101751.66;;;14.56;50.63
9110;BME280;4590;51.462;6.692;2022-11-02T18:00:17;101750.44;;;14.62;50.40
9110;BME280;4590;51.462;6.692;2022-11-02T18:02:56;101749.31;;;14.50;50.38
9110;BME280;4590;51.462;6.692;2022-11-02T18:05:27;101747.56;;;14.54;50.07
9110;BME280;4590;51.462;6.692;2022-11-02T18:07:54;101748.38;;;14.54;50.46
9110;BME280;4590;51.462;6.692;2022-11-02T18:10:22;101744.19;;;14.57;49.91
9110;BME280;4590;51.462;6.692;2022-11-02T18:12:48;101740.19;;;14.49;50.23
9110;BME280;4590;51.462;6.692;2022-11-02T18:15:16;101738.03;;;14.46;49.92
9110;BME280;4590;51.462;6.692;2022-11-02T18:17:43;101741.13;;;14.45;50.10
9110;BME280;4590;51.462;6.692;2022-11-02T18:20:09;101733.13;;;14.43;49.94
9110;BME280;4590;51.462;6.692;2022-11-02T18:22:35;101731.03;;;14.49;49.65
9110;BME280;4590;51.462;6.692;2022-11-02T18:25:01;101726.81;;;14.37;49.88
9110;BME280;4590;51.462;6.692;2022-11-02T18:27:26;101722.66;;;14.40;49.56
9110;BME280;4590;51.462;6.692;2022-11-02T18:29:51;101720.16;;;14.38;49.43
9110;BME280;4590;51.462;6.692;2022-11-02T18:32:17;101719.78;;;14.45;49.44
9110;BME280;4590;51.462;6.692;2022-11-02T18:34:43;101725.19;;;14.36;49.49
9110;BME280;4590;51.462;6.692;2022-11-02T18:37:08;101731.69;;;14.46;49.28
9110;BME280;4590;51.462;6.692;2022-11-02T18:39:33;101733.94;;;14.44;49.04
9110;BME280;4590;51.462;6.692;2022-11-02T18:41:59;101734.75;;;14.44;49.04
9110;BME280;4590;51.462;6.692;2022-11-02T18:44:24;101731.69;;;14.46;49.01
9110;BME280;4590;51.462;6.692;2022-11-02T18:46:49;101731.69;;;14.46;48.94
9110;BME280;4590;51.462;6.692;2022-11-02T18:49:14;101731.78;;;14.41;48.67
9110;BME280;4590;51.462;6.692;2022-11-02T18:51:40;101727.94;;;14.36;48.94
9110;BME280;4590;51.462;6.692;2022-11-02T18:54:07;101725.31;;;14.31;48.88
9110;BME280;4590;51.462;6.692;2022-11-02T18:56:33;101722.03;;;14.29;48.81
9110;BME280;4590;51.462;6.692;2022-11-02T18:58:59;101720.38;;;14.28;48.92
9110;BME280;4590;51.462;6.692;2022-11-02T19:01:25;101726.13;;;14.32;49.03
9110;BME280;4590;51.462;6.692;2022-11-02T19:03:53;101712.56;;;14.17;49.15
9110;BME280;4590;51.462;6.692;2022-11-02T19:06:19;101715.84;;;14.32;48.86
9110;BME280;4590;51.462;6.692;2022-11-02T19:09:05;101711.47;;;14.31;48.79
9110;BME280;4590;51.462;6.692;2022-11-02T19:11:47;101714.94;;;14.23;48.75
9110;BME280;4590;51.462;6.692;2022-11-02T19:14:14;101704.38;;;14.25;49.09
9110;BME280;4590;51.462;6.692;2022-11-02T19:16:39;101710.72;;;13.98;50.13
9110;BME280;4590;51.462;6.692;2022-11-02T19:19:05;101698.53;;;14.13;49.36
9110;BME280;4590;51.462;6.692;2022-11-02T19:21:31;101710.31;;;14.19;49.51
9110;BME280;4590;51.462;6.692;2022-11-02T19:23:56;101696.97;;;14.21;49.31
9110;BME280;4590;51.462;6.692;2022-11-02T19:26:21;101695.94;;;14.17;49.42
9110;BME280;4590;51.462;6.692;2022-11-02T19:28:46;101685.91;;;14.07;49.59
9110;BME280;4590;51.462;6.692;2022-11-02T19:31:12;101682.03;;;14.08;49.48
9110;BME280;4590;51.462;6.692;2022-11-02T19:33:37;101683.66;;;14.09;49.82
9110;BME280;4590;51.462;6.692;2022-11-02T19:36:03;101680.06;;;14.09;49.75
9110;BME280;4590;51.462;6.692;2022-11-02T19:38:28;101683.16;;;14.07;49.82
9110;BME280;4590;51.462;6.692;2022-11-02T19:41:05;101671.97;;;13.85;50.39
9110;BME280;4590;51.462;6.692;2022-11-02T19:43:34;101672.00;;;14.12;49.91
9110;BME280;4590;51.462;6.692;2022-11-02T19:46:01;101657.53;;;14.15;49.54
9110;BME280;4590;51.462;6.692;2022-11-02T19:48:27;101657.94;;;13.95;50.30
9110;BME280;4590;51.462;6.692;2022-11-02T19:50:52;101654.66;;;14.07;50.16
9110;BME280;4590;51.462;6.692;2022-11-02T19:53:18;101661.22;;;13.97;50.38
9110;BME280;4590;51.462;6.692;2022-11-02T19:55:50;101649.72;;;13.90;50.19
9110;BME280;4590;51.462;6.692;2022-11-02T19:58:16;101649.34;;;13.96;50.39
9110;BME280;4590;51.462;6.692;2022-11-02T20:00:41;101640.50;;;13.94;50.66
9110;BME280;4590;51.462;6.692;2022-11-02T20:03:06;101639.09;;;13.97;50.41
9110;BME280;4590;51.462;6.692;2022-11-02T20:05:32;101645.75;;;13.96;50.51
9110;BME280;4590;51.462;6.692;2022-11-02T20:07:57;101631.41;;;13.94;50.64
9110;BME280;4590;51.462;6.692;2022-11-02T20:10:22;101616.13;;;13.96;50.63
9110;BME280;4590;51.462;6.692;2022-11-02T20:12:47;101618.16;;;13.91;50.72
9110;BME280;4590;51.462;6.692;2022-11-02T20:15:13;101623.78;;;13.86;50.90
9110;BME280;4590;51.462;6.692;2022-11-02T20:17:39;101621.38;;;13.84;50.92
9110;BME280;4590;51.462;6.692;2022-11-02T20:20:04;101624.44;;;13.96;50.52
9110;BME280;4590;51.462;6.692;2022-11-02T20:22:30;101620.84;;;13.96;50.45
9110;BME280;4590;51.462;6.692;2022-11-02T20:24:55;101612.13;;;13.89;51.01
9110;BME280;4590;51.462;6.692;2022-11-02T20:27:20;101602.59;;;13.81;51.15
9110;BME280;4590;51.462;6.692;2022-11-02T20:29:46;101602.91;;;13.80;51.08
9110;BME280;4590;51.462;6.692;2022-11-02T20:32:11;101603.59;;;13.85;50.97
9110;BME280;4590;51.462;6.692;2022-11-02T20:34:36;101600.53;;;13.87;50.79
9110;BME280;4590;51.462;6.692;2022-11-02T20:37:02;101599.72;;;13.73;51.39
9110;BME280;4590;51.462;6.692;2022-11-02T20:39:29;101584.44;;;13.89;50.87
9110;BME280;4590;51.462;6.692;2022-11-02T20:41:54;101595.13;;;13.82;51.23
9110;BME280;4590;51.462;6.692;2022-11-02T20:44:21;101586.59;;;13.92;50.94
9110;BME280;4590;51.462;6.692;2022-11-02T20:46:48;101589.78;;;13.85;50.80
9110;BME280;4590;51.462;6.692;2022-11-02T20:49:13;101581.31;;;13.68;51.61
9110;BME280;4590;51.462;6.692;2022-11-02T20:51:39;101583.63;;;13.75;51.43
9110;BME280;4590;51.462;6.692;2022-11-02T20:54:04;101578.31;;;13.78;51.14
9110;BME280;4590;51.462;6.692;2022-11-02T20:56:29;101568.47;;;13.72;51.29
9110;BME280;4590;51.462;6.692;2022-11-02T20:58:54;101570.41;;;13.72;51.25
9110;BME280;4590;51.462;6.692;2022-11-02T21:01:20;101570.84;;;13.79;51.03
9110;BME280;4590;51.462;6.692;2022-11-02T21:03:46;101568.47;;;13.86;51.23
9110;BME280;4590;51.462;6.692;2022-11-02T21:06:11;101568.38;;;13.77;51.53
9110;BME280;4590;51.462;6.692;2022-11-02T21:08:36;101568.91;;;13.65;51.81
9110;BME280;4590;51.462;6.692;2022-11-02T21:11:03;101566.44;;;13.50;52.52
9110;BME280;4590;51.462;6.692;2022-11-02T21:13:49;101565.63;;;13.63;52.26
9110;BME280;4590;51.462;6.692;2022-11-02T21:16:17;101566.97;;;13.66;51.98
9110;BME280;4590;51.462;6.692;2022-11-02T21:18:42;101560.31;;;13.67;51.86
9110;BME280;4590;51.462;6.692;2022-11-02T21:21:11;101545.94;;;13.79;51.72
9110;BME280;4590;51.462;6.692;2022-11-02T21:23:37;101552.50;;;13.83;51.33
9110;BME280;4590;51.462;6.692;2022-11-02T21:26:06;101548.63;;;13.84;51.63
9110;BME280;4590;51.462;6.692;2022-11-02T21:28:34;101557.75;;;13.84;51.64
9110;BME280;4590;51.462;6.692;2022-11-02T21:33:30;101544.94;;;13.61;52.58
9110;BME280;4590;51.462;6.692;2022-11-02T21:35:55;101547.38;;;13.62;52.54
9110;BME280;4590;51.462;6.692;2022-11-02T21:38:21;101546.47;;;13.53;52.93
9110;BME280;4590;51.462;6.692;2022-11-02T21:40:47;101545.22;;;13.46;52.96
9110;BME280;4590;51.462;6.692;2022-11-02T21:43:12;101543.88;;;13.43;53.15
9110;BME280;4590;51.462;6.692;2022-11-02T21:45:37;101535.59;;;13.43;53.11
9110;BME280;4590;51.462;6.692;2022-11-02T21:48:03;101548.22;;;13.49;52.68
9110;BME280;4590;51.462;6.692;2022-11-02T21:50:28;101545.75;;;13.48;53.00
9110;BME280;4590;51.462;6.692;2022-11-02T21:52:53;101535.38;;;13.40;53.25
9110;BME280;4590;51.462;6.692;2022-11-02T21:55:18;101536.84;;;13.37;53.38
9110;BME280;4590;51.462;6.692;2022-11-02T21:57:44;101539.56;;;13.23;53.93
9110;BME280;4590;51.462;6.692;2022-11-02T22:00:09;101537.53;;;13.29;53.66
9110;BME280;4590;51.462;6.692;2022-11-02T22:02:37;101535.56;;;13.16;54.26
9110;BME280;4590;51.462;6.692;2022-11-02T22:05:03;101535.50;;;13.21;53.88
9110;BME280;4590;51.462;6.692;2022-11-02T22:07:28;101530.31;;;13.14;53.93
9110;BME280;4590;51.462;6.692;2022-11-02T22:10:13;101526.00;;;12.76;55.70
9110;BME280;4590;51.462;6.692;2022-11-02T22:12:39;101516.56;;;12.63;56.19
9110;BME280;4590;51.462;6.692;2022-11-02T22:15:23;101507.03;;;12.55;56.47
9110;BME280;4590;51.462;6.692;2022-11-02T22:17:48;101512.66;;;12.96;54.80
9110;BME280;4590;51.462;6.692;2022-11-02T22:20:13;101505.09;;;12.88;55.37
9110;BME280;4590;51.462;6.692;2022-11-02T22:22:39;101495.59;;;12.62;56.23
9110;BME280;4590;51.462;6.692;2022-11-02T22:25:04;101498.63;;;12.79;55.84
9110;BME280;4590;51.462;6.692;2022-11-02T22:27:29;101487.78;;;12.83;55.76
9110;BME280;4590;51.462;6.692;2022-11-02T22:29:55;101497.78;;;12.79;55.76
9110;BME280;4590;51.462;6.692;2022-11-02T22:32:20;101491.19;;;12.93;55.44
9110;BME280;4590;51.462;6.692;2022-11-02T22:34:46;101498.25;;;12.99;55.16
9110;BME280;4590;51.462;6.692;2022-11-02T22:37:12;101498.66;;;12.93;55.24
9110;BME280;4590;51.462;6.692;2022-11-02T22:39:55;101483.31;;;13.00;55.16
9110;BME280;4590;51.462;6.692;2022-11-02T22:42:21;101488.94;;;12.95;55.39
9110;BME280;4590;51.462;6.692;2022-11-02T22:44:46;101486.91;;;13.01;55.19
9110;BME280;4590;51.462;6.692;2022-11-02T22:47:12;101480.13;;;12.93;55.49
9110;BME280;4590;51.462;6.692;2022-11-02T22:49:37;101468.56;;;12.91;55.68
9110;BME280;4590;51.462;6.692;2022-11-02T22:52:02;101485.56;;;12.98;55.27
9110;BME280;4590;51.462;6.692;2022-11-02T22:54:27;101472.97;;;12.92;55.44
9110;BME280;4590;51.462;6.692;2022-11-02T22:56:54;101463.75;;;12.51;56.82
9110;BME280;4590;51.462;6.692;2022-11-02T22:59:19;101463.16;;;12.86;55.68
9110;BME280;4590;51.462;6.692;2022-11-02T23:01:44;101451.59;;;12.84;55.93
9110;BME280;4590;51.462;6.692;2022-11-02T23:04:10;101453.44;;;12.89;55.74
9110;BME280;4590;51.462;6.692;2022-11-02T23:06:36;101448.81;;;12.84;55.68
9110;BME280;4590;51.462;6.692;2022-11-02T23:09:01;101440.91;;;12.64;56.51
9110;BME280;4590;51.462;6.692;2022-11-02T23:11:29;101437.31;;;12.63;56.24
9110;BME280;4590;51.462;6.692;2022-11-02T23:14:00;101442.78;;;12.82;55.60
9110;BME280;4590;51.462;6.692;2022-11-02T23:16:31;101432.78;;;12.86;55.41
9110;BME280;4590;51.462;6.692;2022-11-02T23:19:01;101429.78;;;12.83;55.61
9110;BME280;4590;51.462;6.692;2022-11-02T23:22:10;101412.63;;;12.86;55.49
9110;BME280;4590;51.462;6.692;2022-11-02T23:24:59;101420.59;;;12.74;55.83
9110;BME280;4590;51.462;6.692;2022-11-02T23:27:57;101414.72;;;12.75;55.76
9110;BME280;4590;51.462;6.692;2022-11-02T23:30:41;101415.97;;;12.69;56.11
9110;BME280;4590;51.462;6.692;2022-11-02T23:33:33;101413.94;;;12.75;55.71
9110;BME280;4590;51.462;6.692;2022-11-02T23:36:00;101401.03;;;12.70;56.16
9110;BME280;4590;51.462;6.692;2022-11-02T23:38:35;101406.66;;;12.79;55.74
9110;BME280;4590;51.462;6.692;2022-11-02T23:41:19;101415.44;;;12.67;56.29
9110;BME280;4590;51.462;6.692;2022-11-02T23:43:45;101423.47;;;12.96;55.04
9110;BME280;4590;51.462;6.692;2022-11-02T23:46:11;101408.00;;;12.81;56.10
9110;BME280;4590;51.462;6.692;2022-11-02T23:48:36;101413.22;;;12.83;55.46
9110;BME280;4590;51.462;6.692;2022-11-02T23:51:02;101412.91;;;12.71;56.01
9110;BME280;4590;51.462;6.692;2022-11-02T23:53:46;101412.19;;;12.79;55.79
9110;BME280;4590;51.462;6.692;2022-11-02T23:56:31;101400.75;;;12.72;56.17
9110;BME280;4590;51.462;6.692;2022-11-02T23:59:14;101414.34;;;12.82;55.50
